createdAt,value
2023-08-15T00:01:06.401Z,100792.00
2023-08-15T00:04:09.021Z,100779.47
2023-08-15T00:07:11.649Z,100780.41
2023-08-15T00:10:14.057Z,100789.03
2023-08-15T00:13:16.731Z,100806.38
2023-08-15T00:16:19.199Z,100801.56
2023-08-15T00:19:21.600Z,100775.66
2023-08-15T00:22:24.005Z,100767.13
2023-08-15T00:25:26.446Z,100786.19
2023-08-15T00:28:28.856Z,100774.78
2023-08-15T00:31:31.256Z,100771.50
2023-08-15T00:34:33.643Z,100788.25
2023-08-15T00:37:36.109Z,100763.00
2023-08-15T00:40:41.667Z,100770.56
2023-08-15T00:43:44.015Z,100790.84
2023-08-15T00:46:48.649Z,100789.16
2023-08-15T00:49:52.965Z,100784.44
2023-08-15T00:52:55.665Z,100767.47
2023-08-15T00:55:59.243Z,100765.00
2023-08-15T00:59:02.230Z,100778.97
2023-08-15T01:02:05.255Z,100758.78
2023-08-15T01:05:08.405Z,100757.22
2023-08-15T01:08:10.830Z,100762.16
2023-08-15T01:11:14.161Z,100761.84
2023-08-15T01:14:20.468Z,100765.31
2023-08-15T01:17:34.538Z,100772.94
2023-08-15T01:20:38.400Z,100752.19
2023-08-15T01:23:44.715Z,100776.31
2023-08-15T01:26:47.309Z,100770.75
2023-08-15T01:29:50.658Z,100772.75
2023-08-15T01:33:02.980Z,100780.72
2023-08-15T01:36:19.932Z,100778.78
2023-08-15T01:39:27.103Z,100789.03
2023-08-15T01:42:32.773Z,100785.34
2023-08-15T01:45:36.169Z,100778.41
2023-08-15T01:48:42.791Z,100772.81
2023-08-15T01:51:47.254Z,100797.25
2023-08-15T01:54:49.650Z,100769.28
2023-08-15T01:57:53.287Z,100766.16
2023-08-15T02:00:55.990Z,100761.81
2023-08-15T02:03:58.382Z,100787.50
2023-08-15T02:07:00.800Z,100785.09
2023-08-15T02:10:03.525Z,100787.78
2023-08-15T02:13:05.886Z,100772.59
2023-08-15T02:16:08.386Z,100777.72
2023-08-15T02:19:11.026Z,100802.81
2023-08-15T02:22:13.429Z,100773.44
2023-08-15T02:25:15.895Z,100772.34
2023-08-15T02:28:18.363Z,100794.75
2023-08-15T02:31:20.783Z,100789.06
2023-08-15T02:34:23.187Z,100783.91
2023-08-15T02:37:25.696Z,100772.72
2023-08-15T02:40:29.434Z,100788.69
2023-08-15T02:43:31.843Z,100770.97
2023-08-15T02:46:35.564Z,100760.19
2023-08-15T02:49:39.775Z,100806.13
2023-08-15T02:52:42.325Z,100811.59
2023-08-15T02:55:44.770Z,100808.03
2023-08-15T02:58:47.277Z,100797.69
2023-08-15T03:01:49.754Z,100826.28
2023-08-15T03:04:52.194Z,100810.28
2023-08-15T03:07:54.592Z,100823.63
2023-08-15T03:10:57.666Z,100834.78
2023-08-15T03:14:00.085Z,100804.16
2023-08-15T03:17:03.939Z,100822.59
2023-08-15T03:20:07.336Z,100805.66
2023-08-15T03:23:10.028Z,100826.91
2023-08-15T03:26:13.431Z,100833.94
2023-08-15T03:29:16.354Z,100831.69
2023-08-15T03:32:18.787Z,100809.22
2023-08-15T03:35:22.885Z,100823.19
2023-08-15T03:38:25.597Z,100841.81
2023-08-15T03:41:28.507Z,100834.22
2023-08-15T03:44:30.861Z,100813.91
2023-08-15T03:47:33.392Z,100819.16
2023-08-15T03:50:39.700Z,100838.91
2023-08-15T03:53:44.250Z,100817.44
2023-08-15T03:56:46.689Z,100834.50
2023-08-15T03:59:49.058Z,100835.34
2023-08-15T04:02:51.780Z,100830.63
2023-08-15T04:05:54.296Z,100825.38
2023-08-15T04:08:56.806Z,100826.78
2023-08-15T04:11:59.211Z,100831.66
2023-08-15T04:15:01.692Z,100819.75
2023-08-15T04:18:06.651Z,100813.16
2023-08-15T04:21:11.476Z,100831.53
2023-08-15T04:24:14.138Z,100841.31
2023-08-15T04:27:16.548Z,100827.97
2023-08-15T04:30:19.419Z,100815.28
2023-08-15T04:33:21.878Z,100835.53
2023-08-15T04:36:24.478Z,100824.09
2023-08-15T04:39:28.379Z,100823.50
2023-08-15T04:42:30.825Z,100827.00
2023-08-15T04:45:33.450Z,100847.63
2023-08-15T04:48:35.873Z,100841.13
2023-08-15T04:51:38.329Z,100850.69
2023-08-15T04:54:41.666Z,100823.44
2023-08-15T04:57:44.907Z,100851.94
2023-08-15T05:00:47.413Z,100843.38
2023-08-15T05:03:49.802Z,100824.41
2023-08-15T05:06:52.179Z,100835.63
2023-08-15T05:09:54.543Z,100806.53
2023-08-15T05:13:00.349Z,100832.06
2023-08-15T05:16:03.250Z,100849.69
2023-08-15T05:19:05.743Z,100827.50
2023-08-15T05:22:08.416Z,100825.28
2023-08-15T05:25:11.297Z,100846.31
2023-08-15T05:28:20.138Z,100840.13
2023-08-15T05:31:22.644Z,100815.28
2023-08-15T05:34:25.060Z,100850.06
2023-08-15T05:37:27.422Z,100827.78
2023-08-15T05:40:31.240Z,100830.69
2023-08-15T05:43:33.895Z,100836.53
2023-08-15T05:46:36.251Z,100837.69
2023-08-15T05:49:38.785Z,100832.44
2023-08-15T05:52:41.195Z,100855.38
2023-08-15T05:55:46.730Z,100839.03
2023-08-15T05:58:49.222Z,100860.09
2023-08-15T06:01:51.617Z,100850.69
2023-08-15T06:04:54.563Z,100856.75
2023-08-15T06:07:56.906Z,100856.91
2023-08-15T06:10:59.262Z,100854.09
2023-08-15T06:14:01.674Z,100843.03
2023-08-15T06:17:05.308Z,100862.38
2023-08-15T06:20:08.073Z,100855.28
2023-08-15T06:23:10.872Z,100873.88
2023-08-15T06:26:13.437Z,100861.84
2023-08-15T06:29:15.859Z,100877.22
2023-08-15T06:32:28.455Z,100865.38
2023-08-15T06:35:31.486Z,100870.97
2023-08-15T06:38:33.866Z,100882.03
2023-08-15T06:41:36.258Z,100880.31
2023-08-15T06:44:39.607Z,100882.41
2023-08-15T06:47:41.955Z,100855.31
2023-08-15T06:50:46.183Z,100866.13
2023-08-15T06:53:54.126Z,100844.03
2023-08-15T06:56:56.585Z,100843.22
2023-08-15T06:59:59.003Z,100839.03
2023-08-15T07:03:01.506Z,100857.09
2023-08-15T07:06:05.396Z,100852.63
2023-08-15T07:09:08.014Z,100844.25
2023-08-15T07:12:11.117Z,100852.06
2023-08-15T07:15:13.469Z,100848.13
2023-08-15T07:18:15.838Z,100850.88
2023-08-15T07:21:18.208Z,100858.91
2023-08-15T07:24:20.758Z,100846.00
2023-08-15T07:27:23.176Z,100844.72
2023-08-15T07:30:25.633Z,100829.03
2023-08-15T07:33:28.390Z,100833.38
2023-08-15T07:36:31.014Z,100835.41
2023-08-15T07:39:33.482Z,100832.94
2023-08-15T07:42:36.363Z,100839.72
2023-08-15T07:45:38.776Z,100819.03
2023-08-15T07:48:41.311Z,100834.81
2023-08-15T07:51:43.702Z,100833.13
2023-08-15T07:54:46.732Z,100830.78
2023-08-15T07:57:49.169Z,100828.31
2023-08-15T08:00:51.523Z,100813.66
2023-08-15T08:03:53.879Z,100829.72
2023-08-15T08:06:56.326Z,100819.75
2023-08-15T08:10:00.434Z,100823.75
2023-08-15T08:13:02.934Z,100815.28
2023-08-15T08:16:05.919Z,100816.00
2023-08-15T08:19:08.383Z,100805.56
2023-08-15T08:22:10.751Z,100803.56
2023-08-15T08:25:31.001Z,100801.91
2023-08-15T08:28:33.647Z,100818.53
2023-08-15T08:31:36.109Z,100801.06
2023-08-15T08:34:38.549Z,100799.63
2023-08-15T08:37:40.970Z,100804.41
2023-08-15T08:40:43.439Z,100791.25
2023-08-15T08:43:45.967Z,100786.16
2023-08-15T08:46:48.442Z,100787.25
2023-08-15T08:49:53.707Z,100783.69
2023-08-15T08:52:56.457Z,100776.84
2023-08-15T08:55:59.146Z,100786.69
2023-08-15T08:59:06.486Z,100788.22
2023-08-15T09:02:14.894Z,100784.78
2023-08-15T09:05:17.874Z,100782.81
2023-08-15T09:08:20.251Z,100786.84
2023-08-15T09:11:22.615Z,100777.69
2023-08-15T09:14:25.023Z,100761.25
2023-08-15T09:17:28.149Z,100766.03
2023-08-15T09:20:30.620Z,100759.28
2023-08-15T09:23:33.166Z,100771.13
2023-08-15T09:26:36.573Z,100773.09
2023-08-15T09:29:39.001Z,100769.84
2023-08-15T09:32:45.963Z,100781.50
2023-08-15T09:35:57.964Z,100772.09
2023-08-15T09:39:01.393Z,100776.53
2023-08-15T09:42:03.959Z,100790.44
2023-08-15T09:45:08.565Z,100778.84
2023-08-15T09:48:11.446Z,100796.34
2023-08-15T09:51:17.052Z,100797.31
2023-08-15T09:54:20.133Z,100774.91
2023-08-15T09:57:22.918Z,100792.63
2023-08-15T10:00:25.604Z,100791.59
2023-08-15T10:03:34.898Z,100783.69
2023-08-15T10:06:37.805Z,100762.91
2023-08-15T10:09:41.318Z,100764.31
2023-08-15T10:12:46.822Z,100782.16
2023-08-15T10:15:51.021Z,100767.09
2023-08-15T10:18:55.574Z,100776.59
2023-08-15T10:21:57.971Z,100783.50
2023-08-15T10:25:29.376Z,100784.31
2023-08-15T10:28:35.283Z,100774.63
2023-08-15T10:31:40.209Z,100761.00
2023-08-15T10:34:42.673Z,100783.16
2023-08-15T10:37:47.953Z,100763.31
2023-08-15T10:40:53.075Z,100771.97
2023-08-15T10:43:56.942Z,100783.19
2023-08-15T10:46:59.475Z,100755.75
2023-08-15T10:50:02.090Z,100768.25
2023-08-15T10:53:06.757Z,100753.84
2023-08-15T10:56:10.660Z,100760.81
2023-08-15T10:59:16.963Z,100754.00
2023-08-15T11:02:19.531Z,100741.09
2023-08-15T11:05:22.443Z,100733.44
2023-08-15T11:08:24.832Z,100719.97
2023-08-15T11:11:27.182Z,100744.03
2023-08-15T11:14:29.765Z,100733.28
2023-08-15T11:17:32.166Z,100750.28
2023-08-15T11:20:34.987Z,100755.03
2023-08-15T11:23:37.930Z,100730.41
2023-08-15T11:26:44.058Z,100747.31
2023-08-15T11:29:57.257Z,100745.25
2023-08-15T11:32:59.853Z,100745.41
2023-08-15T11:36:07.634Z,100750.63
2023-08-15T11:39:14.079Z,100757.81
2023-08-15T11:42:16.891Z,100754.41
2023-08-15T11:45:22.480Z,100751.28
2023-08-15T11:48:24.966Z,100731.91
2023-08-15T11:51:27.425Z,100723.31
2023-08-15T11:54:29.826Z,100731.75
2023-08-15T11:57:38.489Z,100732.66
2023-08-15T12:00:41.002Z,100734.06
2023-08-15T12:03:43.523Z,100735.47
2023-08-15T12:06:46.463Z,100711.34
2023-08-15T12:09:49.060Z,100710.66
2023-08-15T12:12:52.729Z,100722.38
2023-08-15T12:15:55.089Z,100707.06
2023-08-15T12:18:58.296Z,100704.88
2023-08-15T12:22:00.653Z,100700.53
2023-08-15T12:25:03.047Z,100692.63
2023-08-15T12:28:06.118Z,100690.94
2023-08-15T12:31:08.475Z,100702.56
2023-08-15T12:34:10.930Z,100690.03
2023-08-15T12:37:13.346Z,100693.06
2023-08-15T12:40:30.054Z,100697.34
2023-08-15T12:43:33.442Z,100673.88
2023-08-15T12:46:35.858Z,100669.03
2023-08-15T12:49:39.739Z,100676.53
2023-08-15T12:52:42.150Z,100675.34
2023-08-15T12:55:46.479Z,100670.13
2023-08-15T12:58:48.982Z,100682.03
2023-08-15T13:01:51.405Z,100670.88
2023-08-15T13:04:53.904Z,100676.13
2023-08-15T13:07:56.420Z,100676.19
2023-08-15T13:10:58.829Z,100659.94
2023-08-15T13:14:02.265Z,100665.34
2023-08-15T13:17:05.374Z,100647.25
2023-08-15T13:20:08.507Z,100663.97
2023-08-15T13:23:11.237Z,100658.19
2023-08-15T13:26:14.348Z,100637.78
2023-08-15T13:29:16.742Z,100650.63
2023-08-15T13:32:19.094Z,100631.97
2023-08-15T13:35:21.484Z,100624.16
2023-08-15T13:38:24.185Z,100622.19
2023-08-15T13:41:26.729Z,100625.50
2023-08-15T13:44:29.076Z,100621.72
2023-08-15T13:47:31.508Z,100638.78
2023-08-15T13:50:34.182Z,100626.88
2023-08-15T13:53:36.558Z,100650.72
2023-08-15T13:56:39.429Z,100640.13
2023-08-15T13:59:42.151Z,100645.47
2023-08-15T14:02:44.808Z,100648.94
2023-08-15T14:05:47.374Z,100644.22
2023-08-15T14:08:49.772Z,100643.00
2023-08-15T14:11:52.163Z,100611.47
2023-08-15T14:14:54.601Z,100635.50
2023-08-15T14:17:57.046Z,100644.41
2023-08-15T14:20:59.453Z,100622.31
2023-08-15T14:24:03.746Z,100643.53
2023-08-15T14:27:06.295Z,100650.19
2023-08-15T14:30:09.418Z,100636.22
2023-08-15T14:33:13.269Z,100639.25
2023-08-15T14:36:15.732Z,100633.38
2023-08-15T14:39:18.233Z,100633.78
2023-08-15T14:42:21.069Z,100623.53
2023-08-15T14:45:23.724Z,100641.88
2023-08-15T14:48:26.273Z,100637.56
2023-08-15T14:51:29.096Z,100644.00
2023-08-15T14:54:31.538Z,100623.94
2023-08-15T14:57:33.918Z,100634.47
2023-08-15T15:00:36.467Z,100614.16
2023-08-15T15:03:39.092Z,100623.66
2023-08-15T15:06:41.756Z,100610.69
2023-08-15T15:09:44.203Z,100625.13
2023-08-15T15:12:48.140Z,100628.97
2023-08-15T15:15:54.301Z,100621.91
2023-08-15T15:18:57.171Z,100625.47
2023-08-15T15:22:00.647Z,100615.72
2023-08-15T15:25:03.105Z,100626.78
2023-08-15T15:28:05.985Z,100620.25
2023-08-15T15:31:08.383Z,100600.84
2023-08-15T15:34:10.828Z,100599.13
2023-08-15T15:37:13.203Z,100604.53
2023-08-15T15:40:15.637Z,100583.59
2023-08-15T15:43:18.089Z,100593.50
2023-08-15T15:46:20.563Z,100594.03
2023-08-15T15:49:23.498Z,100586.38
2023-08-15T15:52:25.953Z,100592.28
2023-08-15T15:55:28.387Z,100587.00
2023-08-15T15:58:30.748Z,100590.97
2023-08-15T16:01:33.197Z,100583.00
2023-08-15T16:04:35.690Z,100591.69
2023-08-15T16:07:38.270Z,100584.56
2023-08-15T16:10:40.659Z,100587.41
2023-08-15T16:13:42.993Z,100593.22
2023-08-15T16:16:45.420Z,100595.63
2023-08-15T16:19:47.805Z,100589.91
2023-08-15T16:22:50.222Z,100582.19
2023-08-15T16:25:52.579Z,100595.88
2023-08-15T16:28:54.964Z,100578.19
2023-08-15T16:31:58.510Z,100592.47
2023-08-15T16:35:00.898Z,100591.00
2023-08-15T16:38:03.374Z,100597.84
2023-08-15T16:41:06.494Z,100574.56
2023-08-15T16:44:08.930Z,100594.97
2023-08-15T16:47:11.321Z,100592.06
2023-08-15T16:50:13.757Z,100601.38
2023-08-15T16:53:17.593Z,100580.63
2023-08-15T16:56:19.996Z,100601.84
2023-08-15T16:59:22.447Z,100594.84
2023-08-15T17:02:25.256Z,100588.97
2023-08-15T17:05:27.986Z,100591.72
2023-08-15T17:08:30.388Z,100592.22
2023-08-15T17:11:32.789Z,100605.06
2023-08-15T17:14:35.192Z,100572.84
2023-08-15T17:17:37.741Z,100585.03
2023-08-15T17:20:40.167Z,100580.81
2023-08-15T17:23:43.129Z,100565.41
2023-08-15T17:26:45.488Z,100566.75
2023-08-15T17:29:48.042Z,100571.59
2023-08-15T17:32:50.417Z,100609.06
2023-08-15T17:35:52.826Z,100606.72
2023-08-15T17:38:55.210Z,100624.44
2023-08-15T17:41:57.646Z,100626.13
2023-08-15T17:45:00.297Z,100623.66
2023-08-15T17:48:02.703Z,100614.19
2023-08-15T17:51:05.122Z,100596.56
2023-08-15T17:54:09.300Z,100610.38
2023-08-15T17:57:11.628Z,100592.03
2023-08-15T18:00:14.605Z,100601.47
2023-08-15T18:03:17.006Z,100595.19
2023-08-15T18:06:19.764Z,100610.22
2023-08-15T18:09:25.426Z,100622.69
2023-08-15T18:12:30.650Z,100631.22
2023-08-15T18:15:33.074Z,100628.22
2023-08-15T18:18:35.923Z,100648.91
2023-08-15T18:21:38.315Z,100632.91
2023-08-15T18:24:40.822Z,100656.25
2023-08-15T18:27:43.204Z,100666.56
2023-08-15T18:30:45.694Z,100642.69
2023-08-15T18:33:48.073Z,100665.13
2023-08-15T18:36:50.475Z,100651.50
2023-08-15T18:39:52.827Z,100657.25
2023-08-15T18:42:55.194Z,100656.31
2023-08-15T18:45:57.692Z,100647.13
2023-08-15T18:49:00.179Z,100668.41
2023-08-15T18:52:02.744Z,100670.50
2023-08-15T18:55:05.652Z,100673.50
2023-08-15T18:58:08.946Z,100663.38
2023-08-15T19:01:11.368Z,100667.28
2023-08-15T19:04:13.728Z,100653.66
2023-08-15T19:07:16.330Z,100653.13
2023-08-15T19:10:18.699Z,100669.59
2023-08-15T19:13:22.832Z,100669.81
2023-08-15T19:16:25.396Z,100661.56
2023-08-15T19:19:27.924Z,100659.34
2023-08-15T19:22:30.298Z,100650.09
2023-08-15T19:25:32.806Z,100666.28
2023-08-15T19:28:35.242Z,100653.66
2023-08-15T19:31:38.258Z,100659.06
2023-08-15T19:34:49.878Z,100652.25
2023-08-15T19:37:52.302Z,100667.22
2023-08-15T19:40:54.634Z,100651.31
2023-08-15T19:43:59.534Z,100641.00
2023-08-15T19:47:02.205Z,100654.53
2023-08-15T19:50:05.556Z,100666.81
2023-08-15T19:53:07.960Z,100636.59
2023-08-15T19:56:10.486Z,100650.94
2023-08-15T19:59:12.870Z,100646.81
2023-08-15T20:02:15.233Z,100661.75
2023-08-15T20:05:18.853Z,100651.84
2023-08-15T20:08:21.238Z,100652.44
2023-08-15T20:11:23.601Z,100627.63
2023-08-15T20:14:28.733Z,100647.88
2023-08-15T20:17:31.338Z,100617.66
2023-08-15T20:20:33.810Z,100645.53
2023-08-15T20:23:36.213Z,100648.81
2023-08-15T20:26:38.556Z,100649.38
2023-08-15T20:29:44.593Z,100632.41
2023-08-15T20:32:47.044Z,100636.94
2023-08-15T20:35:49.483Z,100650.34
2023-08-15T20:38:51.899Z,100664.53
2023-08-15T20:41:54.608Z,100666.03
2023-08-15T20:44:56.994Z,100678.13
2023-08-15T20:47:59.433Z,100675.03
2023-08-15T20:51:01.887Z,100682.81
2023-08-15T20:54:04.608Z,100653.34
2023-08-15T20:57:06.959Z,100646.00
2023-08-15T21:00:10.865Z,100663.16
2023-08-15T21:03:13.712Z,100664.31
2023-08-15T21:06:16.415Z,100664.09
2023-08-15T21:09:19.366Z,100678.03
2023-08-15T21:12:22.114Z,100649.75
2023-08-15T21:15:24.789Z,100662.06
2023-08-15T21:18:27.217Z,100671.25
2023-08-15T21:21:29.586Z,100653.94
2023-08-15T21:24:32.002Z,100668.44
2023-08-15T21:27:34.412Z,100648.34
2023-08-15T21:30:38.031Z,100665.78
2023-08-15T21:33:40.510Z,100673.34
2023-08-15T21:36:42.893Z,100661.22
2023-08-15T21:39:45.231Z,100693.13
2023-08-15T21:42:47.771Z,100638.34
2023-08-15T21:45:50.390Z,100657.56
2023-08-15T21:48:52.975Z,100670.25
2023-08-15T21:51:55.387Z,100653.63
2023-08-15T21:54:57.794Z,100660.78
2023-08-15T21:58:00.205Z,100647.78
2023-08-15T22:01:03.548Z,100666.88
2023-08-15T22:04:06.094Z,100653.34
2023-08-15T22:07:08.458Z,100669.22
2023-08-15T22:10:11.021Z,100672.47
2023-08-15T22:13:13.419Z,100649.66
2023-08-15T22:16:16.158Z,100659.84
2023-08-15T22:19:18.637Z,100648.03
2023-08-15T22:22:21.047Z,100655.25
2023-08-15T22:25:23.852Z,100665.59
2023-08-15T22:28:26.242Z,100672.22
2023-08-15T22:31:28.971Z,100628.69
2023-08-15T22:34:31.409Z,100672.66
2023-08-15T22:37:33.965Z,100648.91
2023-08-15T22:40:36.615Z,100672.91
2023-08-15T22:43:39.124Z,100639.72
2023-08-15T22:46:41.519Z,100657.28
2023-08-15T22:49:43.900Z,100636.22
2023-08-15T22:52:46.286Z,100640.94
2023-08-15T22:55:48.706Z,100643.06
2023-08-15T22:58:51.078Z,100663.66
2023-08-15T23:01:53.482Z,100652.91
2023-08-15T23:04:55.842Z,100639.25
2023-08-15T23:07:58.174Z,100663.25
2023-08-15T23:11:00.548Z,100650.06
2023-08-15T23:14:02.899Z,100640.19
2023-08-15T23:17:05.255Z,100641.28
2023-08-15T23:20:09.321Z,100652.16
2023-08-15T23:23:12.074Z,100665.50
2023-08-15T23:26:14.506Z,100661.75
2023-08-15T23:29:16.946Z,100680.28
2023-08-15T23:32:19.314Z,100656.50
2023-08-15T23:35:21.818Z,100660.50
2023-08-15T23:38:24.223Z,100680.97
2023-08-15T23:41:27.498Z,100670.00
2023-08-15T23:44:29.914Z,100667.00
2023-08-15T23:47:32.524Z,100672.16
2023-08-15T23:50:34.916Z,100671.59
2023-08-15T23:53:37.341Z,100656.28
2023-08-15T23:56:39.779Z,100689.59
2023-08-15T23:59:42.196Z,100667.94
